createdAt,value
2022-09-23T00:00:46.068Z,2.60
2022-09-23T00:01:46.263Z,2.30
2022-09-23T00:02:46.162Z,2.00
2022-09-23T00:03:46.104Z,2.60
2022-09-23T00:04:46.116Z,2.30
2022-09-23T00:05:46.129Z,2.50
2022-09-23T00:06:46.143Z,2.70
2022-09-23T00:07:46.152Z,2.00
2022-09-23T00:08:46.164Z,2.20
2022-09-23T00:09:46.179Z,2.30
2022-09-23T00:10:46.190Z,2.50
2022-09-23T00:11:46.226Z,2.40
2022-09-23T00:12:46.321Z,2.50
2022-09-23T00:13:46.228Z,2.10
2022-09-23T00:14:46.238Z,2.30
2022-09-23T00:15:46.246Z,2.00
2022-09-23T00:16:46.316Z,2.10
2022-09-23T00:17:46.278Z,2.00
2022-09-23T00:18:46.285Z,2.30
2022-09-23T00:19:46.301Z,2.30
2022-09-23T00:20:46.309Z,2.30
2022-09-23T00:21:46.329Z,2.00
2022-09-23T00:22:46.336Z,2.50
2022-09-23T00:23:46.343Z,2.50
2022-09-23T00:24:46.363Z,2.70
2022-09-23T00:25:46.377Z,2.20
2022-09-23T00:26:46.392Z,2.20
2022-09-23T00:27:46.427Z,2.30
2022-09-23T00:28:46.412Z,2.10
2022-09-23T00:29:46.429Z,2.60
2022-09-23T00:30:46.531Z,2.20
2022-09-23T00:31:46.467Z,2.10
2022-09-23T00:32:46.462Z,2.00
2022-09-23T00:33:46.569Z,2.30
2022-09-23T00:34:46.487Z,2.00
2022-09-23T00:35:46.502Z,2.10
2022-09-23T00:36:46.510Z,2.30
2022-09-23T00:37:46.520Z,2.30
2022-09-23T00:38:46.532Z,2.80
2022-09-23T00:39:46.545Z,2.70
2022-09-23T00:40:46.605Z,3.00
2022-09-23T00:41:46.569Z,2.70
2022-09-23T00:42:46.579Z,2.80
2022-09-23T00:43:46.621Z,2.40
2022-09-23T00:44:46.610Z,2.00
2022-09-23T00:45:46.658Z,1.70
2022-09-23T00:46:46.639Z,1.70
2022-09-23T00:47:46.633Z,1.80
2022-09-23T00:48:46.650Z,1.80
2022-09-23T00:49:46.664Z,1.80
2022-09-23T00:50:46.672Z,1.90
2022-09-23T00:51:46.697Z,1.80
2022-09-23T00:52:46.695Z,1.80
2022-09-23T00:53:46.710Z,1.70
2022-09-23T00:54:46.717Z,1.80
2022-09-23T00:55:46.733Z,1.70
2022-09-23T00:56:46.747Z,2.00
2022-09-23T00:57:46.755Z,2.00
2022-09-23T00:58:46.766Z,1.90
2022-09-23T00:59:46.802Z,1.90
2022-09-23T01:00:46.797Z,1.90
2022-09-23T01:01:46.905Z,1.60
2022-09-23T01:02:46.862Z,2.00
2022-09-23T01:03:46.930Z,1.90
2022-09-23T01:04:46.845Z,2.20
2022-09-23T01:05:46.851Z,2.10
2022-09-23T01:06:46.875Z,2.00
2022-09-23T01:07:46.872Z,2.00
2022-09-23T01:08:46.986Z,1.90
2022-09-23T01:09:46.899Z,2.00
2022-09-23T01:10:46.908Z,2.00
2022-09-23T01:11:46.921Z,2.00
2022-09-23T01:12:46.935Z,2.00
2022-09-23T01:13:46.951Z,2.00
2022-09-23T01:14:46.957Z,2.00
2022-09-23T01:15:46.995Z,1.60
2022-09-23T01:16:47.001Z,2.00
2022-09-23T01:17:47.046Z,2.10
2022-09-23T01:18:47.009Z,2.00
2022-09-23T01:19:47.015Z,1.80
2022-09-23T01:20:47.030Z,1.90
2022-09-23T01:21:47.039Z,1.70
2022-09-23T01:22:47.050Z,2.00
2022-09-23T01:23:47.064Z,1.80
2022-09-23T01:24:47.086Z,2.00
2022-09-23T01:25:47.098Z,1.90
2022-09-23T01:26:47.098Z,1.90
2022-09-23T01:27:47.109Z,1.70
2022-09-23T01:28:47.122Z,1.90
2022-09-23T01:29:47.136Z,1.90
2022-09-23T01:30:47.281Z,1.60
2022-09-23T01:31:47.185Z,1.90
2022-09-23T01:32:47.169Z,1.90
2022-09-23T01:33:47.187Z,1.70
2022-09-23T01:34:47.191Z,1.70
2022-09-23T01:35:47.213Z,2.00
2022-09-23T01:36:47.221Z,1.80
2022-09-23T01:37:47.228Z,1.70
2022-09-23T01:38:47.243Z,2.00
2022-09-23T01:39:47.255Z,1.70
2022-09-23T01:40:47.335Z,1.70
2022-09-23T01:41:47.281Z,1.60
2022-09-23T01:42:47.288Z,1.70
2022-09-23T01:43:47.304Z,1.70
2022-09-23T01:44:47.314Z,1.90
2022-09-23T01:45:47.326Z,1.80
2022-09-23T01:46:47.338Z,1.80
2022-09-23T01:47:47.373Z,1.70
2022-09-23T01:48:47.408Z,1.80
2022-09-23T01:49:47.368Z,2.00
2022-09-23T01:50:47.383Z,1.90
2022-09-23T01:51:47.397Z,2.00
2022-09-23T01:52:47.409Z,1.80
2022-09-23T01:53:47.417Z,1.90
2022-09-23T01:54:47.429Z,1.60
2022-09-23T01:55:47.440Z,1.70
2022-09-23T01:56:47.454Z,1.70
2022-09-23T01:57:47.468Z,1.70
2022-09-23T01:58:47.477Z,1.90
2022-09-23T01:59:47.494Z,2.00
2022-09-23T02:00:47.500Z,1.90
2022-09-23T02:01:47.616Z,1.80
2022-09-23T02:02:47.577Z,2.00
2022-09-23T02:03:47.561Z,1.80
2022-09-23T02:04:47.546Z,1.90
2022-09-23T02:05:47.576Z,1.50
2022-09-23T02:06:47.570Z,1.80
2022-09-23T02:07:47.578Z,1.60
2022-09-23T02:08:47.596Z,2.10
2022-09-23T02:09:47.605Z,2.10
2022-09-23T02:10:47.624Z,1.90
2022-09-23T02:11:47.627Z,2.10
2022-09-23T02:12:47.638Z,1.60
2022-09-23T02:13:47.650Z,1.70
2022-09-23T02:14:47.670Z,1.70
2022-09-23T02:15:47.673Z,2.00
2022-09-23T02:16:47.774Z,1.60
2022-09-23T02:17:47.697Z,1.80
2022-09-23T02:18:47.709Z,1.80
2022-09-23T02:19:47.853Z,1.50
2022-09-23T02:20:47.732Z,1.80
2022-09-23T02:21:47.742Z,1.70
2022-09-23T02:22:47.756Z,2.00
2022-09-23T02:23:47.767Z,2.00
2022-09-23T02:24:47.882Z,1.90
2022-09-23T02:25:47.794Z,2.00
2022-09-23T02:26:47.801Z,1.80
2022-09-23T02:27:47.813Z,1.70
2022-09-23T02:28:47.824Z,2.10
2022-09-23T02:29:47.836Z,2.20
2022-09-23T02:30:47.848Z,1.90
2022-09-23T02:31:47.957Z,1.80
2022-09-23T02:32:47.869Z,1.70
2022-09-23T02:33:47.878Z,2.10
2022-09-23T02:34:47.900Z,1.60
2022-09-23T02:35:47.933Z,1.70
2022-09-23T02:36:47.926Z,1.70
2022-09-23T02:37:47.926Z,1.80
2022-09-23T02:38:47.934Z,1.70
2022-09-23T02:39:47.948Z,1.90
2022-09-23T02:40:48.092Z,1.90
2022-09-23T02:41:47.970Z,1.70
2022-09-23T02:42:47.981Z,1.80
2022-09-23T02:43:47.990Z,1.90
2022-09-23T02:44:48.003Z,2.00
2022-09-23T02:45:48.062Z,1.90
2022-09-23T02:46:48.024Z,1.60
2022-09-23T02:47:48.038Z,1.90
2022-09-23T02:48:48.048Z,1.70
2022-09-23T02:49:48.057Z,1.80
2022-09-23T02:50:48.069Z,1.90
2022-09-23T02:51:48.106Z,2.00
2022-09-23T02:52:48.096Z,1.80
2022-09-23T02:53:48.108Z,2.00
2022-09-23T02:54:48.115Z,2.00
2022-09-23T02:55:48.129Z,1.60
2022-09-23T02:56:48.135Z,1.80
2022-09-23T02:57:48.150Z,1.80
2022-09-23T02:58:48.169Z,1.80
2022-09-23T02:59:48.168Z,1.70
2022-09-23T03:00:48.228Z,1.80
2022-09-23T03:01:48.248Z,1.90
2022-09-23T03:02:48.203Z,1.70
2022-09-23T03:03:48.214Z,1.40
2022-09-23T03:04:48.230Z,1.80
2022-09-23T03:05:48.237Z,1.80
2022-09-23T03:06:48.245Z,1.90
2022-09-23T03:07:48.285Z,1.80
2022-09-23T03:08:48.272Z,1.80
2022-09-23T03:09:48.283Z,1.90
2022-09-23T03:10:48.302Z,1.60
2022-09-23T03:11:48.305Z,1.70
2022-09-23T03:12:48.315Z,2.00
2022-09-23T03:13:48.427Z,1.70
2022-09-23T03:14:48.341Z,1.70
2022-09-23T03:15:48.350Z,1.70
2022-09-23T03:16:48.414Z,1.50
2022-09-23T03:17:48.372Z,1.90
2022-09-23T03:18:48.382Z,1.60
2022-09-23T03:19:48.415Z,1.90
2022-09-23T03:20:48.406Z,1.70
2022-09-23T03:21:48.418Z,1.60
2022-09-23T03:22:48.430Z,1.70
2022-09-23T03:23:48.463Z,2.00
2022-09-23T03:24:51.949Z,1.60
2022-09-23T03:25:48.462Z,1.90
2022-09-23T03:26:48.473Z,1.80
2022-09-23T03:27:48.491Z,1.70
2022-09-23T03:28:48.503Z,1.60
2022-09-23T03:29:48.509Z,1.60
2022-09-23T03:30:48.518Z,1.90
2022-09-23T03:31:48.620Z,1.60
2022-09-23T03:32:48.540Z,1.70
2022-09-23T03:33:48.551Z,1.60
2022-09-23T03:34:48.561Z,1.60
2022-09-23T03:35:48.573Z,1.90
2022-09-23T03:36:48.650Z,1.90
2022-09-23T03:37:48.592Z,1.50
2022-09-23T03:38:48.602Z,1.90
2022-09-23T03:39:48.650Z,1.90
2022-09-23T03:40:48.712Z,1.80
2022-09-23T03:41:48.637Z,1.90
2022-09-23T03:42:48.645Z,1.70
2022-09-23T03:43:48.660Z,1.90
2022-09-23T03:44:48.674Z,1.70
2022-09-23T03:45:48.752Z,2.10
2022-09-23T03:46:48.697Z,1.80
2022-09-23T03:47:48.704Z,1.80
2022-09-23T03:48:48.722Z,2.30
2022-09-23T03:49:48.726Z,1.90
2022-09-23T03:50:48.738Z,1.70
2022-09-23T03:51:48.748Z,1.80
2022-09-23T03:52:48.761Z,1.70
2022-09-23T03:53:48.773Z,1.80
2022-09-23T03:54:48.781Z,1.60
2022-09-23T03:55:48.816Z,2.00
2022-09-23T03:56:48.804Z,1.50
2022-09-23T03:57:48.815Z,1.60
2022-09-23T03:58:48.833Z,1.40
2022-09-23T03:59:48.840Z,1.60
2022-09-23T04:00:48.930Z,1.70
2022-09-23T04:01:48.908Z,1.30
2022-09-23T04:02:48.869Z,1.60
2022-09-23T04:03:48.882Z,1.60
2022-09-23T04:04:48.900Z,1.50
2022-09-23T04:05:48.902Z,1.60
2022-09-23T04:06:48.916Z,1.90
2022-09-23T04:07:48.924Z,1.60
2022-09-23T04:08:48.934Z,1.40
2022-09-23T04:09:48.952Z,1.50
2022-09-23T04:10:52.879Z,1.70
2022-09-23T04:11:48.996Z,1.30
2022-09-23T04:12:48.978Z,1.40
2022-09-23T04:13:48.995Z,1.40
2022-09-23T04:14:49.002Z,1.50
2022-09-23T04:15:49.011Z,1.20
2022-09-23T04:16:49.056Z,1.40
2022-09-23T04:17:49.034Z,1.60
2022-09-23T04:18:49.050Z,1.50
2022-09-23T04:19:49.054Z,1.50
2022-09-23T04:20:49.073Z,1.60
2022-09-23T04:21:49.075Z,1.80
2022-09-23T04:22:49.086Z,1.60
2022-09-23T04:23:49.098Z,1.80
2022-09-23T04:24:49.109Z,1.70
2022-09-23T04:25:49.121Z,1.80
2022-09-23T04:26:49.131Z,1.70
2022-09-23T04:27:49.169Z,1.60
2022-09-23T04:28:49.154Z,1.70
2022-09-23T04:29:49.162Z,1.70
2022-09-23T04:30:49.178Z,1.70
2022-09-23T04:31:49.251Z,1.60
2022-09-23T04:32:49.195Z,1.60
2022-09-23T04:33:49.205Z,1.60
2022-09-23T04:34:49.224Z,1.90
2022-09-23T04:35:49.235Z,1.90
2022-09-23T04:36:49.238Z,1.50
2022-09-23T04:37:49.247Z,1.70
2022-09-23T04:38:49.257Z,1.60
2022-09-23T04:39:49.271Z,1.60
2022-09-23T04:40:49.336Z,1.80
2022-09-23T04:41:49.292Z,1.60
2022-09-23T04:42:49.299Z,2.00
2022-09-23T04:43:49.335Z,1.70
2022-09-23T04:44:49.322Z,1.80
2022-09-23T04:45:49.340Z,1.70
2022-09-23T04:46:49.465Z,1.60
2022-09-23T04:47:49.358Z,1.60
2022-09-23T04:48:49.366Z,1.60
2022-09-23T04:49:49.380Z,1.30
2022-09-23T04:50:49.393Z,1.50
2022-09-23T04:51:49.398Z,1.60
2022-09-23T04:52:49.419Z,1.80
2022-09-23T04:53:49.419Z,1.70
2022-09-23T04:54:49.435Z,1.70
2022-09-23T04:55:49.441Z,1.60
2022-09-23T04:56:49.452Z,1.60
2022-09-23T04:57:49.460Z,1.80
2022-09-23T04:58:49.470Z,1.80
2022-09-23T04:59:49.513Z,1.50
2022-09-23T05:00:49.571Z,1.80
2022-09-23T05:01:49.543Z,1.70
2022-09-23T05:02:49.513Z,1.70
2022-09-23T05:03:49.526Z,1.40
2022-09-23T05:04:49.535Z,1.80
2022-09-23T05:05:49.551Z,1.50
2022-09-23T05:06:49.557Z,1.40
2022-09-23T05:07:49.571Z,1.70
2022-09-23T05:08:49.579Z,1.70
2022-09-23T05:09:49.592Z,1.80
2022-09-23T05:10:49.601Z,1.80
2022-09-23T05:11:49.610Z,7.20
2022-09-23T05:12:53.567Z,3.90
2022-09-23T05:13:49.633Z,2.50
2022-09-23T05:14:49.642Z,2.20
2022-09-23T05:15:49.696Z,1.60
2022-09-23T05:16:49.664Z,1.70
2022-09-23T05:17:49.675Z,1.70
2022-09-23T05:18:49.684Z,1.40
2022-09-23T05:19:49.696Z,1.60
2022-09-23T05:20:49.704Z,1.50
2022-09-23T05:21:49.719Z,1.60
2022-09-23T05:22:49.731Z,1.70
2022-09-23T05:23:49.739Z,1.70
2022-09-23T05:24:49.749Z,1.60
2022-09-23T05:25:49.762Z,1.70
2022-09-23T05:26:49.772Z,1.80
2022-09-23T05:27:49.779Z,1.70
2022-09-23T05:28:49.807Z,1.60
2022-09-23T05:29:49.815Z,1.60
2022-09-23T05:30:49.810Z,1.40
2022-09-23T05:31:49.898Z,1.70
2022-09-23T05:32:49.840Z,1.70
2022-09-23T05:33:49.847Z,1.60
2022-09-23T05:34:49.861Z,1.60
2022-09-23T05:35:49.967Z,1.70
2022-09-23T05:36:49.878Z,1.60
2022-09-23T05:37:49.886Z,1.60
2022-09-23T05:38:50.200Z,1.60
2022-09-23T05:39:49.912Z,1.60
2022-09-23T05:40:50.013Z,1.50
2022-09-23T05:41:49.932Z,1.70
2022-09-23T05:42:49.940Z,1.60
2022-09-23T05:43:49.951Z,1.80
2022-09-23T05:44:49.963Z,1.90
2022-09-23T05:45:49.975Z,1.60
2022-09-23T05:46:50.064Z,1.90
2022-09-23T05:47:50.090Z,1.50
2022-09-23T05:48:50.011Z,1.50
2022-09-23T05:49:59.763Z,1.70
2022-09-23T05:50:50.027Z,1.70
2022-09-23T05:51:50.039Z,1.80
2022-09-23T05:52:50.050Z,1.60
2022-09-23T05:53:50.064Z,1.80
2022-09-23T05:54:50.086Z,1.80
2022-09-23T05:55:50.237Z,1.90
2022-09-23T05:56:50.092Z,1.60
2022-09-23T05:57:50.105Z,1.60
2022-09-23T05:58:50.124Z,1.70
2022-09-23T05:59:50.128Z,1.90
2022-09-23T06:00:50.140Z,1.70
2022-09-23T06:01:53.199Z,1.90
2022-09-23T06:02:50.267Z,1.80
2022-09-23T06:03:50.196Z,1.60
2022-09-23T06:04:50.182Z,1.60
2022-09-23T06:05:50.190Z,1.70
2022-09-23T06:06:50.203Z,1.50
2022-09-23T06:07:50.214Z,1.60
2022-09-23T06:08:50.231Z,1.90
2022-09-23T06:09:50.238Z,1.60
2022-09-23T06:10:54.350Z,1.60
2022-09-23T06:11:50.260Z,1.80
2022-09-23T06:12:50.346Z,2.10
2022-09-23T06:13:50.283Z,1.70
2022-09-23T06:14:50.293Z,1.90
2022-09-23T06:15:50.330Z,1.60
2022-09-23T06:16:50.316Z,1.70
2022-09-23T06:17:50.325Z,1.70
2022-09-23T06:18:50.335Z,1.80
2022-09-23T06:19:50.468Z,1.50
2022-09-23T06:20:50.359Z,1.60
2022-09-23T06:21:50.369Z,1.70
2022-09-23T06:22:54.175Z,1.60
2022-09-23T06:23:53.997Z,1.60
2022-09-23T06:24:50.400Z,1.50
2022-09-23T06:25:50.425Z,1.60
2022-09-23T06:26:50.451Z,1.50
2022-09-23T06:27:50.443Z,1.40
2022-09-23T06:28:50.444Z,1.60
2022-09-23T06:29:50.460Z,1.70
2022-09-23T06:30:50.465Z,1.80
2022-09-23T06:31:50.564Z,1.60
2022-09-23T06:32:50.493Z,1.70
2022-09-23T06:33:52.103Z,1.70
2022-09-23T06:34:52.063Z,1.60
2022-09-23T06:35:59.044Z,1.50
2022-09-23T06:36:50.533Z,1.80
2022-09-23T06:37:50.543Z,1.90
2022-09-23T06:38:50.570Z,1.60
2022-09-23T06:39:50.566Z,1.40
2022-09-23T06:40:50.645Z,1.60
2022-09-23T06:41:50.589Z,1.50
2022-09-23T06:42:52.434Z,1.50
2022-09-23T06:43:50.612Z,1.40
2022-09-23T06:44:50.620Z,2.00
2022-09-23T06:45:50.632Z,1.50
2022-09-23T06:46:50.693Z,1.60
2022-09-23T06:47:50.653Z,1.50
2022-09-23T06:48:50.665Z,1.70
2022-09-23T06:49:50.677Z,1.60
2022-09-23T06:50:50.686Z,1.80
2022-09-23T06:51:50.725Z,1.90
2022-09-23T06:52:50.818Z,2.00
2022-09-23T06:53:50.721Z,1.70
2022-09-23T06:54:50.734Z,2.10
2022-09-23T06:55:50.751Z,2.20
2022-09-23T06:56:50.757Z,2.00
2022-09-23T06:57:50.766Z,2.20
2022-09-23T06:58:50.776Z,2.30
2022-09-23T06:59:50.789Z,1.90
2022-09-23T07:00:50.798Z,2.10
2022-09-23T07:01:50.980Z,1.90
2022-09-23T07:02:50.870Z,1.80
2022-09-23T07:03:50.842Z,1.60
2022-09-23T07:04:50.843Z,1.70
2022-09-23T07:05:50.856Z,1.70
2022-09-23T07:06:50.866Z,1.60
2022-09-23T07:07:50.903Z,1.60
2022-09-23T07:08:50.892Z,1.50
2022-09-23T07:09:50.903Z,1.40
2022-09-23T07:10:50.921Z,1.80
2022-09-23T07:11:50.922Z,1.40
2022-09-23T07:12:50.934Z,1.60
2022-09-23T07:13:50.952Z,1.60
2022-09-23T07:14:51.060Z,1.50
2022-09-23T07:15:51.048Z,1.60
2022-09-23T07:16:50.975Z,1.70
2022-09-23T07:17:50.991Z,1.80
2022-09-23T07:18:51.012Z,1.70
2022-09-23T07:19:51.012Z,1.60
2022-09-23T07:20:51.029Z,1.90
2022-09-23T07:21:51.040Z,2.10
2022-09-23T07:22:51.048Z,1.60
2022-09-23T07:23:51.087Z,1.50
2022-09-23T07:24:51.067Z,1.40
2022-09-23T07:25:51.078Z,1.80
2022-09-23T07:26:51.092Z,1.60
2022-09-23T07:27:51.108Z,1.90
2022-09-23T07:28:51.116Z,2.40
2022-09-23T07:29:51.123Z,1.90
2022-09-23T07:30:59.608Z,1.80
2022-09-23T07:31:51.541Z,1.80
2022-09-23T07:32:51.243Z,1.80
2022-09-23T07:33:51.173Z,2.20
2022-09-23T07:34:51.199Z,2.00
2022-09-23T07:35:51.191Z,2.10
2022-09-23T07:36:51.205Z,2.00
2022-09-23T07:37:51.221Z,2.10
2022-09-23T07:38:51.335Z,2.40
2022-09-23T07:39:51.276Z,2.10
2022-09-23T07:40:51.337Z,1.80
2022-09-23T07:41:51.261Z,1.70
2022-09-23T07:42:51.271Z,1.70
2022-09-23T07:43:51.286Z,1.70
2022-09-23T07:44:51.297Z,1.50
2022-09-23T07:45:51.305Z,1.90
2022-09-23T07:46:51.383Z,1.90
2022-09-23T07:47:51.327Z,1.80
2022-09-23T07:48:51.355Z,1.80
2022-09-23T07:49:51.352Z,2.10
2022-09-23T07:50:51.365Z,2.30
2022-09-23T07:51:51.374Z,2.10
2022-09-23T07:52:51.392Z,2.00
2022-09-23T07:53:51.405Z,2.10
2022-09-23T07:54:51.411Z,1.90
2022-09-23T07:55:51.448Z,1.90
2022-09-23T07:56:51.433Z,2.10
2022-09-23T07:57:51.454Z,2.00
2022-09-23T07:58:51.562Z,1.90
2022-09-23T07:59:51.466Z,1.70
2022-09-23T08:00:51.480Z,1.80
2022-09-23T08:01:51.589Z,1.70
2022-09-23T08:02:53.085Z,1.90
2022-09-23T08:03:51.520Z,2.00
2022-09-23T08:04:51.533Z,2.00
2022-09-23T08:05:51.553Z,2.20
2022-09-23T08:06:51.550Z,1.70
2022-09-23T08:07:51.561Z,1.90
2022-09-23T08:08:53.437Z,2.00
2022-09-23T08:09:51.590Z,2.00
2022-09-23T08:10:51.600Z,1.80
2022-09-23T08:11:51.635Z,1.80
2022-09-23T08:12:51.625Z,1.80
2022-09-23T08:13:51.639Z,2.40
2022-09-23T08:14:51.647Z,2.10
2022-09-23T08:15:55.371Z,1.80
2022-09-23T08:16:51.672Z,1.90
2022-09-23T08:17:51.688Z,1.90
2022-09-23T08:18:51.777Z,1.70
2022-09-23T08:19:51.711Z,1.90
2022-09-23T08:20:51.720Z,1.60
2022-09-23T08:21:51.736Z,1.90
2022-09-23T08:22:51.748Z,1.80
2022-09-23T08:23:51.778Z,1.60
2022-09-23T08:24:52.843Z,1.60
2022-09-23T08:25:51.784Z,1.40
2022-09-23T08:26:51.794Z,1.50
2022-09-23T08:27:51.852Z,1.60
2022-09-23T08:28:51.823Z,1.50
2022-09-23T08:29:51.834Z,1.60
2022-09-23T08:30:51.885Z,1.30
2022-09-23T08:31:51.863Z,1.40
2022-09-23T08:32:51.871Z,1.20
2022-09-23T08:33:51.884Z,1.20
2022-09-23T08:34:51.893Z,1.50
2022-09-23T08:35:51.921Z,1.80
2022-09-23T08:36:52.023Z,1.70
2022-09-23T08:37:51.935Z,1.60
2022-09-23T08:38:51.947Z,1.60
2022-09-23T08:39:51.958Z,1.60
2022-09-23T08:40:51.969Z,1.50
2022-09-23T08:41:56.067Z,2.20
2022-09-23T08:42:51.999Z,1.70
2022-09-23T08:43:52.031Z,2.00
2022-09-23T08:44:52.019Z,1.90
2022-09-23T08:45:52.087Z,1.90
2022-09-23T08:46:52.047Z,1.90
2022-09-23T08:47:52.063Z,1.80
2022-09-23T08:48:52.072Z,2.10
2022-09-23T08:49:52.094Z,1.90
2022-09-23T08:50:52.096Z,2.10
2022-09-23T08:51:52.117Z,1.90
2022-09-23T08:52:52.121Z,1.90
2022-09-23T08:53:52.138Z,2.00
2022-09-23T08:54:55.399Z,2.10
2022-09-23T08:55:52.164Z,1.80
2022-09-23T08:56:52.177Z,1.90
2022-09-23T08:58:14.035Z,2.40
2022-09-23T08:58:52.206Z,2.10
2022-09-23T08:59:52.241Z,1.90
2022-09-23T09:00:52.228Z,2.30
2022-09-23T09:01:52.345Z,2.40
2022-09-23T09:02:52.321Z,2.10
2022-09-23T09:03:52.267Z,1.80
2022-09-23T09:04:52.280Z,1.90
2022-09-23T09:05:54.462Z,2.00
2022-09-23T09:06:54.375Z,1.80
2022-09-23T09:07:52.422Z,2.30
2022-09-23T09:08:52.332Z,2.10
2022-09-23T09:09:52.346Z,2.00
2022-09-23T09:10:52.356Z,2.30
2022-09-23T09:11:52.374Z,2.10
2022-09-23T09:12:52.388Z,2.30
2022-09-23T09:13:52.398Z,2.00
2022-09-23T09:14:52.418Z,2.00
2022-09-23T09:15:55.199Z,2.10
2022-09-23T09:17:00.691Z,2.00
2022-09-23T09:17:52.517Z,1.90
2022-09-23T09:18:52.466Z,1.80
2022-09-23T09:19:52.507Z,2.10
2022-09-23T09:20:52.492Z,2.10
2022-09-23T09:21:52.506Z,2.10
2022-09-23T09:22:52.565Z,1.70
2022-09-23T09:23:52.539Z,1.90
2022-09-23T09:24:52.552Z,1.90
2022-09-23T09:25:52.565Z,2.00
2022-09-23T09:26:52.581Z,2.20
2022-09-23T09:27:52.588Z,1.90
2022-09-23T09:28:52.596Z,1.60
2022-09-23T09:29:52.613Z,1.80
2022-09-23T09:30:52.698Z,1.70
2022-09-23T09:31:52.671Z,2.00
2022-09-23T09:32:52.674Z,1.70
2022-09-23T09:33:52.676Z,2.00
2022-09-23T09:34:52.678Z,2.10
2022-09-23T09:35:52.691Z,2.00
2022-09-23T09:36:52.706Z,1.70
2022-09-23T09:37:53.511Z,2.00
2022-09-23T09:38:52.732Z,1.80
2022-09-23T09:39:52.744Z,1.60
2022-09-23T09:40:52.810Z,1.90
2022-09-23T09:41:52.771Z,1.70
2022-09-23T09:42:52.835Z,1.80
2022-09-23T09:43:52.798Z,1.60
2022-09-23T09:44:52.822Z,1.40
2022-09-23T09:45:57.534Z,1.80
2022-09-23T09:46:52.920Z,1.70
2022-09-23T09:47:52.882Z,1.90
2022-09-23T09:48:52.870Z,1.80
2022-09-23T09:49:52.888Z,1.50
2022-09-23T09:50:52.901Z,1.90
2022-09-23T09:51:52.918Z,1.70
2022-09-23T09:52:52.880Z,1.70
2022-09-23T09:53:52.890Z,1.80
2022-09-23T09:54:52.899Z,1.60
2022-09-23T09:55:52.918Z,1.80
2022-09-23T09:56:52.948Z,2.00
2022-09-23T09:57:52.943Z,1.70
2022-09-23T09:58:52.968Z,1.50
2022-09-23T09:59:52.971Z,1.60
2022-09-23T10:00:52.993Z,1.90
2022-09-23T10:01:53.044Z,1.60
2022-09-23T10:02:53.017Z,1.30
2022-09-23T10:03:55.683Z,1.50
2022-09-23T10:04:53.100Z,1.60
2022-09-23T10:05:53.059Z,1.90
2022-09-23T10:06:53.074Z,1.40
2022-09-23T10:07:53.097Z,1.30
2022-09-23T10:08:53.105Z,1.60
2022-09-23T10:09:55.771Z,1.50
2022-09-23T10:10:53.130Z,1.20
2022-09-23T10:11:53.148Z,1.30
2022-09-23T10:12:53.163Z,1.30
2022-09-23T10:13:53.176Z,1.50
2022-09-23T10:14:53.199Z,1.30
2022-09-23T10:15:53.208Z,1.50
2022-09-23T10:16:53.268Z,1.60
2022-09-23T10:17:53.237Z,1.30
2022-09-23T10:18:53.256Z,1.40
2022-09-23T10:19:53.292Z,1.40
2022-09-23T10:20:53.282Z,1.30
2022-09-23T10:21:53.302Z,1.60
2022-09-23T10:22:53.317Z,1.30
2022-09-23T10:23:53.333Z,1.50
2022-09-23T10:24:53.354Z,1.40
2022-09-23T10:25:53.366Z,1.20
2022-09-23T10:26:53.383Z,1.40
2022-09-23T10:27:53.397Z,1.40
2022-09-23T10:28:53.419Z,1.20
2022-09-23T10:29:53.431Z,1.10
2022-09-23T10:30:53.490Z,1.30
2022-09-23T10:31:53.463Z,1.50
2022-09-23T10:32:53.481Z,1.30
2022-09-23T10:33:53.495Z,1.20
2022-09-23T10:34:53.507Z,1.30
2022-09-23T10:35:53.559Z,1.20
2022-09-23T10:36:53.545Z,1.40
2022-09-23T10:37:53.565Z,1.50
2022-09-23T10:38:53.578Z,1.60
2022-09-23T10:39:53.594Z,1.30
2022-09-23T10:40:53.795Z,1.30
2022-09-23T10:41:53.689Z,1.30
2022-09-23T10:42:53.663Z,1.40
2022-09-23T10:43:53.662Z,1.50
2022-09-23T10:44:53.684Z,1.30
2022-09-23T10:45:53.751Z,1.20
2022-09-23T10:46:53.718Z,1.20
2022-09-23T10:47:53.732Z,1.00
2022-09-23T10:48:53.752Z,1.00
2022-09-23T10:49:53.764Z,1.30
2022-09-23T10:50:53.787Z,1.40
2022-09-23T10:51:53.830Z,1.60
2022-09-23T10:52:53.819Z,1.30
2022-09-23T10:53:53.841Z,1.30
2022-09-23T10:54:53.852Z,1.30
2022-09-23T10:55:53.875Z,1.20
2022-09-23T10:56:53.890Z,1.30
2022-09-23T10:57:53.909Z,1.20
2022-09-23T10:58:53.923Z,1.40
2022-09-23T10:59:53.950Z,1.40
2022-09-23T11:00:54.112Z,1.30
2022-09-23T11:01:54.065Z,1.20
2022-09-23T11:02:53.995Z,1.10
2022-09-23T11:03:54.009Z,1.20
2022-09-23T11:04:54.204Z,1.40
2022-09-23T11:05:54.043Z,1.10
2022-09-23T11:06:54.065Z,1.10
2022-09-23T11:07:54.105Z,1.30
2022-09-23T11:08:54.101Z,1.20
2022-09-23T11:09:54.119Z,1.10
2022-09-23T11:10:54.132Z,1.20
2022-09-23T11:11:54.153Z,1.10
2022-09-23T11:12:54.172Z,1.10
2022-09-23T11:13:54.877Z,1.20
2022-09-23T11:14:54.205Z,1.10
2022-09-23T11:15:54.222Z,1.20
2022-09-23T11:16:54.269Z,1.40
2022-09-23T11:17:54.307Z,0.90
2022-09-23T11:18:54.276Z,1.20
2022-09-23T11:19:54.303Z,1.10
2022-09-23T11:20:54.311Z,1.00
2022-09-23T11:21:54.330Z,1.00
2022-09-23T11:22:54.354Z,1.00
2022-09-23T11:23:54.394Z,1.10
2022-09-23T11:24:54.384Z,1.10
2022-09-23T11:25:54.404Z,1.20
2022-09-23T11:26:54.423Z,1.10
2022-09-23T11:27:54.441Z,1.10
2022-09-23T11:28:54.454Z,1.00
2022-09-23T11:29:54.475Z,1.20
2022-09-23T11:30:54.559Z,1.10
2022-09-23T11:31:59.308Z,1.00
2022-09-23T11:32:54.625Z,1.00
2022-09-23T11:33:54.544Z,1.00
2022-09-23T11:34:55.166Z,1.00
2022-09-23T11:35:54.581Z,1.10
2022-09-23T11:36:54.600Z,1.10
2022-09-23T11:37:54.613Z,1.00
2022-09-23T11:38:54.631Z,1.20
2022-09-23T11:39:54.714Z,1.00
2022-09-23T11:40:54.918Z,1.20
2022-09-23T11:41:54.688Z,1.10
2022-09-23T11:42:54.719Z,1.00
2022-09-23T11:43:54.722Z,1.00
2022-09-23T11:44:54.738Z,1.20
2022-09-23T11:45:54.785Z,1.20
2022-09-23T11:46:54.773Z,1.00
2022-09-23T11:47:54.794Z,0.90
2022-09-23T11:48:54.811Z,1.00
2022-09-23T11:49:54.835Z,1.00
2022-09-23T11:50:54.849Z,1.20
2022-09-23T11:51:54.870Z,1.00
2022-09-23T11:52:54.884Z,1.00
2022-09-23T11:53:54.905Z,1.30
2022-09-23T11:54:54.919Z,1.50
2022-09-23T11:55:58.182Z,1.10
2022-09-23T11:56:54.960Z,1.10
2022-09-23T11:57:54.978Z,1.10
2022-09-23T11:58:57.761Z,1.30
2022-09-23T11:59:55.055Z,1.00
2022-09-23T12:01:00.382Z,1.10
2022-09-23T12:01:55.367Z,1.10
2022-09-23T12:03:04.252Z,1.30
2022-09-23T12:03:55.235Z,1.00
2022-09-23T12:04:58.134Z,1.30
2022-09-23T12:05:55.205Z,1.10
2022-09-23T12:06:55.142Z,1.20
2022-09-23T12:07:55.161Z,1.20
2022-09-23T12:08:55.179Z,1.10
2022-09-23T12:09:58.556Z,1.10
2022-09-23T12:10:55.213Z,1.10
2022-09-23T12:11:55.261Z,1.10
2022-09-23T12:12:55.250Z,1.20
2022-09-23T12:13:55.274Z,1.10
2022-09-23T12:14:55.334Z,1.00
2022-09-23T12:15:55.309Z,1.00
2022-09-23T12:16:55.512Z,1.30
2022-09-23T12:17:55.347Z,1.30
2022-09-23T12:18:55.363Z,1.10
2022-09-23T12:19:55.384Z,1.00
2022-09-23T12:20:55.413Z,1.00
2022-09-23T12:21:55.425Z,1.10
2022-09-23T12:22:55.449Z,1.20
2022-09-23T12:23:55.459Z,1.20
2022-09-23T12:24:55.482Z,1.00
2022-09-23T12:25:55.507Z,0.90
2022-09-23T12:26:55.520Z,1.10
2022-09-23T12:27:55.557Z,1.10
2022-09-23T12:28:55.555Z,1.00
2022-09-23T12:29:55.576Z,1.00
2022-09-23T12:30:55.663Z,1.20
2022-09-23T12:31:55.606Z,1.10
2022-09-23T12:32:55.630Z,1.30
2022-09-23T12:33:55.645Z,1.20
2022-09-23T12:34:55.669Z,1.00
2022-09-23T12:35:55.688Z,1.10
2022-09-23T12:36:55.704Z,1.10
2022-09-23T12:37:55.728Z,1.10
2022-09-23T12:38:55.743Z,1.00
2022-09-23T12:39:55.757Z,1.10
2022-09-23T12:40:55.782Z,1.00
2022-09-23T12:41:55.798Z,1.10
2022-09-23T12:42:55.817Z,1.10
2022-09-23T12:43:55.856Z,1.00
2022-09-23T12:44:55.851Z,1.00
2022-09-23T12:45:55.903Z,0.90
2022-09-23T12:46:55.887Z,1.00
2022-09-23T12:47:55.909Z,1.10
2022-09-23T12:48:55.947Z,1.20
2022-09-23T12:49:55.950Z,1.20
2022-09-23T12:50:55.968Z,1.10
2022-09-23T12:51:55.992Z,1.10
2022-09-23T12:52:56.013Z,0.90
2022-09-23T12:53:56.023Z,1.10
2022-09-23T12:54:56.039Z,1.00
2022-09-23T12:55:56.068Z,1.20
2022-09-23T12:56:56.080Z,1.20
2022-09-23T12:57:56.098Z,1.10
2022-09-23T12:58:56.118Z,1.00
2022-09-23T12:59:56.212Z,1.00
2022-09-23T13:00:56.250Z,1.00
2022-09-23T13:01:56.294Z,0.90
2022-09-23T13:02:56.196Z,1.20
2022-09-23T13:03:56.219Z,1.00
2022-09-23T13:04:56.234Z,1.00
2022-09-23T13:05:56.260Z,1.10
2022-09-23T13:06:56.278Z,1.20
2022-09-23T13:07:56.301Z,1.00
2022-09-23T13:08:56.318Z,0.90
2022-09-23T13:09:56.336Z,1.00
2022-09-23T13:10:56.356Z,1.20
2022-09-23T13:11:56.374Z,1.00
2022-09-23T13:12:56.397Z,1.00
2022-09-23T13:13:56.415Z,1.30
2022-09-23T13:14:56.431Z,1.00
2022-09-23T13:15:56.484Z,1.00
2022-09-23T13:16:56.521Z,1.00
2022-09-23T13:17:56.601Z,1.00
2022-09-23T13:18:56.521Z,1.00